Huvudsida
METAR-TAF:

METAR-TAF

Flygplatser :

Genua, Italien

latitud: 44-25N, longitud: 008-51E, höjd: 2 m

Aktuellt väderrapport

Denna rapport gjordes för 41 minuter sedan, klockan 22:50 UTC
Vind 6 kt från nord/nordost
Temperatur 10°C
Fuktighet 71%
Tryck 1006 hPa
Sikt 10 km eller mer
Brutna moln på en höjd av 3000 ft

METAR: LIMJ 172250Z 03006KT 9999 BKN030 10/05 Q1006

Tid: 00:31 (23:31 UTC)

Väderprognos

Denna rapport gjordes för 4 timmar och 51 minuter sedan, klockan 18:40 UTC
Prognos gäller från 17 kl. 18 UTC till 18 kl. 18 UTC
Vind 15 kt från syd/sydväst
Sikt 10 km eller mer
Spridda moln på en höjd av 1500 ft
Brutna moln på en höjd av 4000 ft
Sannolikhet 40% :
Temporärt
från 17 kl. 18 UTC till 18 kl. 03 UTC
Sikt: 4000 m
åska, regn
Blir
från 18 kl. 16 UTC till 18 kl. 18 UTC
regn

TAF: LIMJ 171840Z 1718/1818 20015KT 9999 SCT015 BKN040 PROB40 TEMPO 1718/1803 4000 TSRA BECMG 1816/1818 RA

Aktuella väderrapporter och prognoser från 4000 flygplatser (METAR- och TAF-rapporter).

De tillgängliga stationerna syns som gula och röda prickar på kartan.

För musen över prickarna för att se namnen på stationerna.

Klicka sedan för att få väderrapporter och prognoser.

För att ändra kartan: Klicka på de gröna knapparna med ett svart kors på för att zooma in; den gröna knappen med ett streck på för att zooma ut; eller på de gröna pilarna för angränsande kartor.


METAR-TAF: